createdAt,value
2019-02-17T00:02:00.026Z,21.90
2019-02-17T00:04:40.966Z,24.13
2019-02-17T00:07:21.332Z,24.77
2019-02-17T00:10:02.349Z,24.47
2019-02-17T00:12:43.227Z,22.90
2019-02-17T00:15:23.890Z,24.73
2019-02-17T00:18:04.631Z,25.13
2019-02-17T00:23:28.126Z,22.93
2019-02-17T00:26:09.376Z,25.03
2019-02-17T00:28:59.100Z,24.93
2019-02-17T00:31:32.871Z,26.20
2019-02-17T00:34:13.849Z,25.13
2019-02-17T00:36:55.134Z,25.23
2019-02-17T00:39:36.010Z,24.70
2019-02-17T00:42:16.670Z,24.97
2019-02-17T00:44:57.330Z,25.50
2019-02-17T00:47:37.878Z,24.50
2019-02-17T00:50:18.629Z,24.00
2019-02-17T00:52:59.646Z,23.73
2019-02-17T00:55:40.693Z,25.00
2019-02-17T00:58:21.314Z,25.13
2019-02-17T01:01:01.879Z,27.10
2019-02-17T01:03:42.278Z,24.23
2019-02-17T01:06:22.774Z,24.33
2019-02-17T01:09:03.579Z,24.03
2019-02-17T01:11:44.646Z,26.97
2019-02-17T01:14:25.188Z,24.33
2019-02-17T01:17:05.595Z,26.03
2019-02-17T01:19:46.215Z,25.37
2019-02-17T01:22:27.151Z,25.57
2019-02-17T01:25:07.515Z,27.43
2019-02-17T01:27:48.119Z,27.37
2019-02-17T01:30:28.999Z,26.33
2019-02-17T01:33:08.096Z,26.37
2019-02-17T01:35:56.167Z,27.00
2019-02-17T01:38:44.307Z,27.43
2019-02-17T01:41:32.439Z,25.83
2019-02-17T01:44:20.530Z,25.03
2019-02-17T01:47:08.600Z,25.47
2019-02-17T01:49:49.818Z,25.73
2019-02-17T01:55:12.662Z,25.13
2019-02-17T01:57:53.636Z,26.70
2019-02-17T02:00:34.108Z,25.07
2019-02-17T02:03:14.658Z,24.97
2019-02-17T02:05:55.051Z,24.63
2019-02-17T02:08:35.599Z,25.47
2019-02-17T02:11:16.666Z,25.30
2019-02-17T02:14:00.572Z,24.30
2019-02-17T02:16:41.525Z,25.17
2019-02-17T02:19:22.151Z,23.73
2019-02-17T02:22:01.700Z,25.43
2019-02-17T02:24:49.771Z,23.97
2019-02-17T02:27:38.082Z,25.23
2019-02-17T02:30:26.152Z,24.80
2019-02-17T02:33:14.236Z,22.50
2019-02-17T02:36:02.291Z,24.37
2019-02-17T02:38:50.434Z,24.00
2019-02-17T02:41:38.509Z,25.57
2019-02-17T02:44:26.590Z,24.63
2019-02-17T02:47:14.732Z,21.67
2019-02-17T02:49:55.803Z,22.53
2019-02-17T02:52:36.539Z,24.10
2019-02-17T02:55:17.277Z,25.57
2019-02-17T02:57:58.078Z,24.67
2019-02-17T03:00:39.059Z,24.93
2019-02-17T03:03:20.299Z,24.27
2019-02-17T03:06:19.751Z,23.90
2019-02-17T03:09:00.450Z,24.93
2019-02-17T03:11:41.558Z,25.03
2019-02-17T03:14:22.663Z,25.33
2019-02-17T03:17:03.328Z,25.50
2019-02-17T03:19:44.065Z,24.27
2019-02-17T03:22:24.970Z,24.77
2019-02-17T03:25:05.997Z,25.03
2019-02-17T03:27:46.699Z,23.77
2019-02-17T03:30:27.392Z,24.17
2019-02-17T03:35:50.094Z,24.10
2019-02-17T03:41:12.560Z,26.20
2019-02-17T03:43:52.918Z,24.03
2019-02-17T03:46:36.788Z,26.50
2019-02-17T03:49:17.699Z,24.97
2019-02-17T03:51:58.647Z,24.57
2019-02-17T03:54:39.710Z,24.30
2019-02-17T03:57:20.442Z,23.70
2019-02-17T04:00:01.099Z,23.73
2019-02-17T04:02:42.013Z,25.47
2019-02-17T04:05:22.668Z,23.30
2019-02-17T04:08:03.534Z,24.43
2019-02-17T04:10:44.610Z,25.83
2019-02-17T04:13:25.865Z,26.57
2019-02-17T04:16:06.727Z,23.43
2019-02-17T04:18:48.003Z,24.20
2019-02-17T04:21:17.026Z,26.23
2019-02-17T04:24:05.168Z,24.80
2019-02-17T04:26:34.128Z,25.20
2019-02-17T04:29:22.202Z,24.60
2019-02-17T04:32:10.300Z,23.90
2019-02-17T04:34:58.382Z,22.83
2019-02-17T04:37:46.455Z,24.80
2019-02-17T04:40:34.597Z,22.97
2019-02-17T04:43:22.974Z,23.63
2019-02-17T04:46:11.287Z,24.20
2019-02-17T04:48:52.354Z,22.70
2019-02-17T04:51:33.389Z,23.77
2019-02-17T04:54:14.243Z,24.37
2019-02-17T04:56:55.038Z,25.00
2019-02-17T04:59:35.831Z,23.67
2019-02-17T05:02:16.927Z,23.53
2019-02-17T05:04:57.802Z,22.90
2019-02-17T05:07:38.671Z,23.00
2019-02-17T05:13:06.193Z,23.30
2019-02-17T05:15:46.776Z,23.40
2019-02-17T05:18:27.587Z,23.30
2019-02-17T05:21:08.192Z,23.27
2019-02-17T05:23:48.814Z,23.53
2019-02-17T05:26:30.712Z,23.47
2019-02-17T05:29:11.844Z,23.07
2019-02-17T05:31:52.889Z,22.80
2019-02-17T05:34:34.020Z,21.80
2019-02-17T05:37:03.071Z,23.73
2019-02-17T05:39:51.150Z,24.97
2019-02-17T05:42:39.562Z,23.87
2019-02-17T05:45:27.625Z,23.17
2019-02-17T05:48:09.111Z,23.37
2019-02-17T05:50:50.424Z,22.77
2019-02-17T05:56:17.223Z,23.60
2019-02-17T05:58:57.784Z,24.87
2019-02-17T06:01:38.559Z,24.83
2019-02-17T06:04:19.403Z,23.17
2019-02-17T06:07:00.163Z,22.50
2019-02-17T06:12:30.192Z,21.83
2019-02-17T06:15:11.100Z,27.70
2019-02-17T06:17:51.754Z,27.73
2019-02-17T06:20:32.118Z,25.33
2019-02-17T06:23:13.030Z,25.70
2019-02-17T06:25:53.720Z,26.07
2019-02-17T06:28:34.335Z,24.17
2019-02-17T06:31:15.035Z,24.33
2019-02-17T06:33:55.776Z,24.53
2019-02-17T06:36:36.361Z,24.43
2019-02-17T06:39:17.281Z,24.43
2019-02-17T06:41:58.107Z,26.13
2019-02-17T06:44:38.719Z,23.87
2019-02-17T06:47:26.379Z,24.87
2019-02-17T06:50:07.208Z,25.83
2019-02-17T06:52:48.043Z,25.67
2019-02-17T06:58:38.161Z,23.93
2019-02-17T07:01:24.535Z,23.50
2019-02-17T07:04:01.640Z,24.97
2019-02-17T07:06:45.758Z,24.53
2019-02-17T07:09:27.098Z,23.13
2019-02-17T07:12:08.118Z,23.90
2019-02-17T07:14:48.574Z,33.37
2019-02-17T07:17:28.971Z,28.40
2019-02-17T07:20:10.187Z,26.13
2019-02-17T07:22:50.637Z,27.37
2019-02-17T07:25:31.180Z,27.57
2019-02-17T07:28:11.863Z,27.70
2019-02-17T07:30:52.878Z,27.43
2019-02-17T07:33:33.439Z,28.53
2019-02-17T07:36:14.318Z,27.80
2019-02-17T07:38:54.949Z,27.53
2019-02-17T07:41:35.663Z,26.93
2019-02-17T07:44:16.330Z,27.20
2019-02-17T07:46:56.994Z,26.43
2019-02-17T07:49:38.042Z,25.17
2019-02-17T07:52:18.683Z,25.27
2019-02-17T07:54:59.522Z,26.00
2019-02-17T07:57:40.309Z,25.53
2019-02-17T08:00:21.134Z,26.37
2019-02-17T08:03:02.203Z,25.67
2019-02-17T08:05:42.578Z,25.97
2019-02-17T08:08:23.203Z,28.07
2019-02-17T08:11:04.426Z,27.60
2019-02-17T08:13:44.967Z,25.47
2019-02-17T08:16:25.926Z,26.27
2019-02-17T08:19:06.430Z,26.27
2019-02-17T08:21:47.038Z,26.70
2019-02-17T08:24:27.689Z,27.47
2019-02-17T08:27:08.439Z,25.77
2019-02-17T08:29:49.655Z,26.03
2019-02-17T08:32:30.167Z,26.67
2019-02-17T08:35:11.238Z,25.17
2019-02-17T08:37:51.878Z,25.37
2019-02-17T08:40:32.575Z,22.90
2019-02-17T08:43:13.361Z,24.03
2019-02-17T08:45:54.213Z,23.37
2019-02-17T08:48:35.010Z,22.53
2019-02-17T08:51:15.687Z,20.47
2019-02-17T08:53:56.179Z,20.47
2019-02-17T08:56:36.743Z,19.00
2019-02-17T09:02:06.521Z,14.83
2019-02-17T09:04:46.915Z,14.90
2019-02-17T09:07:27.639Z,14.90
2019-02-17T09:10:08.344Z,15.05
2019-02-17T09:12:49.103Z,14.38
2019-02-17T09:15:29.665Z,15.85
2019-02-17T09:18:10.973Z,15.03
2019-02-17T09:20:55.087Z,15.43
2019-02-17T09:23:34.295Z,14.60
2019-02-17T09:26:22.682Z,15.80
2019-02-17T09:29:10.814Z,16.02
2019-02-17T09:31:59.500Z,14.68
2019-02-17T09:34:48.681Z,14.47
2019-02-17T09:37:36.749Z,15.32
2019-02-17T09:40:24.818Z,14.40
2019-02-17T09:43:12.953Z,13.05
2019-02-17T09:46:01.102Z,13.40
2019-02-17T09:48:42.145Z,13.28
2019-02-17T09:51:11.477Z,12.85
2019-02-17T09:53:59.533Z,12.68
2019-02-17T09:56:28.738Z,12.00
2019-02-17T09:59:16.869Z,11.57
2019-02-17T10:02:05.015Z,11.30
2019-02-17T10:04:53.071Z,11.90
2019-02-17T10:07:41.224Z,11.20
2019-02-17T10:10:29.646Z,12.18
2019-02-17T10:13:17.708Z,10.58
2019-02-17T10:16:05.787Z,11.65
2019-02-17T10:18:54.171Z,11.12
2019-02-17T10:21:42.565Z,10.32
2019-02-17T10:24:30.635Z,11.10
2019-02-17T10:27:19.034Z,9.60
2019-02-17T10:30:08.378Z,9.28
2019-02-17T10:32:56.522Z,9.85
2019-02-17T10:35:44.671Z,9.10
2019-02-17T10:38:32.762Z,8.63
2019-02-17T10:41:20.911Z,8.03
2019-02-17T10:44:08.971Z,8.98
2019-02-17T10:46:57.111Z,8.13
2019-02-17T10:49:38.491Z,8.43
2019-02-17T10:52:19.516Z,8.03
2019-02-17T10:55:00.606Z,8.68
2019-02-17T10:57:41.199Z,8.28
2019-02-17T11:00:21.852Z,8.33
2019-02-17T11:03:02.499Z,8.45
2019-02-17T11:05:43.367Z,8.03
2019-02-17T11:08:24.035Z,8.18
2019-02-17T11:11:04.899Z,8.20
2019-02-17T11:13:33.778Z,7.58
2019-02-17T11:16:21.907Z,9.15
2019-02-17T11:19:09.974Z,8.00
2019-02-17T11:21:58.051Z,7.95
2019-02-17T11:24:46.208Z,8.43
2019-02-17T11:27:34.287Z,8.90
2019-02-17T11:30:22.427Z,8.55
2019-02-17T11:33:10.502Z,8.30
2019-02-17T11:35:58.858Z,8.83
2019-02-17T11:38:47.052Z,9.00
2019-02-17T11:41:35.147Z,7.72
2019-02-17T11:44:23.534Z,8.85
2019-02-17T11:47:11.601Z,8.38
2019-02-17T11:49:50.839Z,8.05
2019-02-17T11:52:38.970Z,7.90
2019-02-17T11:55:27.124Z,8.15
2019-02-17T11:58:15.291Z,7.67
2019-02-17T12:01:05.258Z,6.70
2019-02-17T12:03:53.169Z,6.60
2019-02-17T12:06:41.302Z,8.65
2019-02-17T12:09:29.463Z,8.08
2019-02-17T12:12:17.673Z,7.85
2019-02-17T12:15:06.107Z,6.33
2019-02-17T12:17:54.245Z,7.10
2019-02-17T12:21:01.354Z,6.47
2019-02-17T12:24:08.508Z,6.22
2019-02-17T12:27:15.707Z,6.35
2019-02-17T12:30:07.302Z,6.83
2019-02-17T12:32:55.372Z,7.42
2019-02-17T12:35:43.442Z,6.53
2019-02-17T12:38:31.607Z,7.28
2019-02-17T12:41:19.906Z,7.72
2019-02-17T12:44:07.995Z,7.45
2019-02-17T12:46:56.135Z,6.60
2019-02-17T12:49:37.074Z,6.42
2019-02-17T12:52:17.739Z,6.75
2019-02-17T12:54:58.626Z,6.83
2019-02-17T13:00:25.709Z,6.50
2019-02-17T13:03:06.443Z,7.05
2019-02-17T13:05:50.599Z,7.15
2019-02-17T13:14:00.174Z,6.35
2019-02-17T13:16:41.843Z,5.42
2019-02-17T13:19:23.049Z,6.03
2019-02-17T13:22:03.751Z,5.90
2019-02-17T13:24:44.474Z,5.58
2019-02-17T13:27:25.111Z,5.75
2019-02-17T13:30:05.711Z,6.22
2019-02-17T13:32:46.314Z,5.87
2019-02-17T13:35:27.291Z,6.03
2019-02-17T13:38:07.953Z,5.80
2019-02-17T13:40:48.968Z,6.37
2019-02-17T13:43:30.275Z,6.22
2019-02-17T13:46:12.214Z,6.22
2019-02-17T13:48:53.094Z,6.12
2019-02-17T13:51:33.699Z,6.87
2019-02-17T13:56:56.541Z,6.40
2019-02-17T13:59:37.615Z,6.80
2019-02-17T14:02:18.515Z,7.08
2019-02-17T14:04:59.220Z,6.80
2019-02-17T14:07:39.803Z,6.00
2019-02-17T14:10:20.159Z,5.20
2019-02-17T14:13:00.741Z,5.17
2019-02-17T14:15:41.130Z,5.22
2019-02-17T14:18:21.859Z,5.35
2019-02-17T14:21:03.222Z,4.47
2019-02-17T14:23:43.787Z,5.12
2019-02-17T14:26:24.679Z,5.03
2019-02-17T14:29:05.322Z,5.20
2019-02-17T14:31:45.978Z,4.95
2019-02-17T14:34:29.861Z,4.92
2019-02-17T14:37:13.272Z,4.87
2019-02-17T14:39:54.107Z,5.40
2019-02-17T14:42:34.858Z,4.70
2019-02-17T14:45:16.159Z,4.78
2019-02-17T14:47:57.871Z,4.40
2019-02-17T14:50:38.410Z,5.05
2019-02-17T14:53:19.107Z,4.70
2019-02-17T14:56:00.185Z,5.00
2019-02-17T14:58:40.580Z,5.22
2019-02-17T15:01:21.032Z,6.22
2019-02-17T15:04:08.371Z,6.10
2019-02-17T15:06:44.400Z,5.90
2019-02-17T15:09:25.048Z,5.47
2019-02-17T15:12:05.737Z,5.10
2019-02-17T15:14:46.866Z,5.03
2019-02-17T15:17:27.487Z,5.62
2019-02-17T15:20:08.189Z,6.35
2019-02-17T15:22:49.085Z,6.42
2019-02-17T15:25:30.522Z,6.10
2019-02-17T15:28:11.005Z,5.80
2019-02-17T15:33:34.839Z,6.15
2019-02-17T15:36:15.223Z,6.08
2019-02-17T15:38:56.453Z,6.65
2019-02-17T15:41:37.491Z,7.05
2019-02-17T15:44:18.791Z,8.50
2019-02-17T15:46:59.717Z,9.43
2019-02-17T15:49:40.090Z,7.58
2019-02-17T15:52:20.704Z,7.03
2019-02-17T15:57:44.530Z,7.05
2019-02-17T16:00:25.571Z,10.53
2019-02-17T16:03:06.101Z,8.07
2019-02-17T16:08:48.821Z,5.97
2019-02-17T16:11:29.242Z,5.67
2019-02-17T16:14:09.787Z,6.40
2019-02-17T16:16:50.693Z,5.50
2019-02-17T16:19:31.366Z,5.77
2019-02-17T16:22:12.305Z,6.27
2019-02-17T16:24:53.110Z,6.50
2019-02-17T16:27:33.481Z,6.07
2019-02-17T16:30:16.917Z,6.53
2019-02-17T16:32:57.284Z,7.00
2019-02-17T16:35:37.750Z,6.27
2019-02-17T16:38:18.611Z,6.90
2019-02-17T16:40:59.818Z,6.40
2019-02-17T16:46:26.209Z,6.40
2019-02-17T16:49:06.816Z,6.50
2019-02-17T16:51:47.689Z,7.30
2019-02-17T16:54:28.318Z,8.40
2019-02-17T16:57:08.954Z,8.00
2019-02-17T16:59:50.129Z,8.00
2019-02-17T17:02:31.297Z,8.13
2019-02-17T17:05:12.082Z,8.70
2019-02-17T17:07:52.708Z,9.03
2019-02-17T17:10:33.538Z,8.47
2019-02-17T17:13:14.345Z,8.23
2019-02-17T17:15:54.889Z,8.83
2019-02-17T17:18:35.765Z,8.50
2019-02-17T17:21:16.254Z,8.87
2019-02-17T17:23:56.996Z,8.37
2019-02-17T17:26:38.185Z,9.10
2019-02-17T17:29:18.863Z,11.10
2019-02-17T17:31:59.581Z,10.37
2019-02-17T17:34:40.206Z,10.17
2019-02-17T17:37:20.878Z,9.03
2019-02-17T17:40:01.714Z,10.80
2019-02-17T17:42:42.441Z,13.43
2019-02-17T17:45:23.409Z,12.93
2019-02-17T17:48:04.139Z,13.37
2019-02-17T17:50:45.037Z,12.67
2019-02-17T17:53:25.649Z,15.63
2019-02-17T17:56:06.325Z,10.40
2019-02-17T17:58:47.553Z,13.47
2019-02-17T18:01:28.349Z,30.20
2019-02-17T18:04:09.416Z,40.00
2019-02-17T18:06:50.113Z,128.00
2019-02-17T18:09:30.683Z,145.10
2019-02-17T18:12:11.237Z,168.53
2019-02-17T18:14:51.885Z,37.00
2019-02-17T18:17:32.509Z,21.87
2019-02-17T18:20:13.073Z,15.40
2019-02-17T18:22:53.630Z,12.10
2019-02-17T18:25:34.137Z,10.73
2019-02-17T18:28:14.632Z,11.37
2019-02-17T18:30:55.317Z,11.30
2019-02-17T18:33:36.425Z,8.97
2019-02-17T18:36:17.266Z,13.20
2019-02-17T18:38:58.009Z,12.30
2019-02-17T18:41:38.891Z,10.40
2019-02-17T18:44:19.581Z,9.17
2019-02-17T18:47:00.329Z,14.07
2019-02-17T18:49:40.826Z,9.17
2019-02-17T18:52:21.586Z,8.83
2019-02-17T18:55:02.083Z,10.10
2019-02-17T18:57:50.249Z,10.37
2019-02-17T19:00:25.807Z,12.87
2019-02-17T19:03:06.720Z,12.70
2019-02-17T19:05:47.669Z,13.23
2019-02-17T19:08:28.610Z,10.53
2019-02-17T19:11:10.337Z,16.00
2019-02-17T19:13:50.638Z,12.53
2019-02-17T19:16:31.274Z,17.23
2019-02-17T19:19:11.804Z,14.27
2019-02-17T19:21:52.390Z,11.40
2019-02-17T19:24:32.814Z,9.33
2019-02-17T19:27:13.525Z,9.83
2019-02-17T19:29:53.981Z,9.70
2019-02-17T19:32:34.973Z,9.90
2019-02-17T19:35:15.509Z,11.57
2019-02-17T19:37:54.689Z,13.47
2019-02-17T19:40:42.897Z,10.90
2019-02-17T19:43:31.145Z,9.13
2019-02-17T19:46:19.645Z,10.23
2019-02-17T19:49:07.797Z,10.13
2019-02-17T19:51:55.924Z,9.87
2019-02-17T19:54:44.078Z,12.40
2019-02-17T19:57:32.214Z,12.60
2019-02-17T20:00:20.375Z,12.97
2019-02-17T20:03:27.808Z,17.63
2019-02-17T20:06:18.113Z,16.83
2019-02-17T20:12:17.525Z,15.80
2019-02-17T20:15:05.977Z,13.33
2019-02-17T20:17:54.122Z,11.37
2019-02-17T20:20:42.253Z,11.97
2019-02-17T20:23:30.459Z,10.53
2019-02-17T20:26:18.749Z,10.67
2019-02-17T20:29:06.902Z,10.40
2019-02-17T20:31:55.072Z,10.63
2019-02-17T20:34:43.205Z,11.17
2019-02-17T20:37:12.170Z,10.23
2019-02-17T20:40:00.387Z,11.67
2019-02-17T20:42:48.462Z,11.40
2019-02-17T20:45:36.593Z,11.63
2019-02-17T20:48:24.824Z,11.93
2019-02-17T20:51:05.405Z,11.37
2019-02-17T20:53:46.041Z,10.57
2019-02-17T20:56:26.764Z,10.67
2019-02-17T20:59:07.562Z,11.33
2019-02-17T21:01:48.099Z,11.63
2019-02-17T21:04:28.614Z,11.67
2019-02-17T21:07:10.171Z,12.77
2019-02-17T21:09:51.254Z,13.03
2019-02-17T21:12:32.038Z,12.13
2019-02-17T21:15:13.085Z,12.07
2019-02-17T21:17:54.145Z,12.20
2019-02-17T21:20:35.519Z,11.10
2019-02-17T21:23:16.803Z,11.17
2019-02-17T21:25:57.391Z,11.37
2019-02-17T21:28:37.883Z,11.57
2019-02-17T21:31:18.341Z,11.37
2019-02-17T21:33:59.306Z,13.03
2019-02-17T21:36:39.755Z,12.73
2019-02-17T21:39:20.695Z,13.73
2019-02-17T21:42:02.155Z,12.90
2019-02-17T21:44:43.143Z,13.57
2019-02-17T21:50:22.787Z,12.17
2019-02-17T21:53:03.291Z,13.53
2019-02-17T21:55:44.142Z,14.70
2019-02-17T21:58:24.921Z,14.97
2019-02-17T22:01:06.040Z,16.60
2019-02-17T22:03:46.870Z,14.30
2019-02-17T22:06:33.604Z,14.07
2019-02-17T22:09:10.165Z,13.27
2019-02-17T22:11:50.941Z,13.83
2019-02-17T22:14:31.795Z,15.27
2019-02-17T22:17:12.617Z,15.67
2019-02-17T22:19:53.618Z,14.73
2019-02-17T22:22:34.173Z,15.37
2019-02-17T22:25:14.901Z,13.73
2019-02-17T22:27:55.578Z,15.70
2019-02-17T22:30:37.154Z,16.37
2019-02-17T22:33:17.950Z,14.93
2019-02-17T22:35:58.682Z,16.67
2019-02-17T22:38:39.278Z,16.83
2019-02-17T22:41:20.045Z,17.73
2019-02-17T22:44:00.933Z,16.93
2019-02-17T22:46:41.522Z,15.33
2019-02-17T22:49:22.250Z,15.97
2019-02-17T22:52:03.039Z,16.03
2019-02-17T22:54:43.955Z,16.03
2019-02-17T22:57:24.658Z,16.03
2019-02-17T23:00:05.656Z,17.40
2019-02-17T23:02:46.966Z,16.70
2019-02-17T23:05:27.581Z,19.37
2019-02-17T23:08:08.865Z,22.53
2019-02-17T23:10:37.874Z,19.33
2019-02-17T23:13:26.273Z,18.43
2019-02-17T23:16:14.405Z,18.43
2019-02-17T23:18:44.592Z,17.10
2019-02-17T23:21:33.474Z,19.53
2019-02-17T23:24:21.618Z,16.47
2019-02-17T23:27:09.749Z,16.27
2019-02-17T23:29:57.817Z,15.43
2019-02-17T23:32:45.885Z,14.57
2019-02-17T23:35:34.025Z,14.90
2019-02-17T23:38:22.193Z,15.87
2019-02-17T23:41:10.361Z,15.83
2019-02-17T23:43:58.749Z,14.43
2019-02-17T23:46:46.877Z,13.80
2019-02-17T23:49:35.262Z,15.63
2019-02-17T23:52:16.361Z,15.83
2019-02-17T23:54:57.046Z,15.73
2019-02-17T23:57:37.498Z,15.67
